Fort Morgan, CO (80701)

7:12 PM MDT on July 28, 2014 (GMT -0600)
Fort Morgan (KCOFORTM2) Elev 4327 ft | 40.24 °N, 103.79 °W | Change Station
Active Advisory: Flash Flood Watch

Current weather conditions updated 15 seconds ago

Clear
Clear
81.1 °F
Feels Like 81 °F
N
2.2
Wind Variable Wind from SSW
Gusts 6.9 mph

Tomorrow is forecast to be Cooler than today. A few thunderstorms possible.

Today
High -- | Low -- °F
--% Chance of Precip.
Yesterday
High -- | Low -- °F
Precip. -- in
5:49 AM 8:13 PM
Waxing Crescent, 4% visible
Pressure 30.23 in
Visibility 10.0 miles
Clouds Clear
Heat Index 81 °F
Dew Point 57 °F
Humidity 43%
Rainfall 0.00 in
Snow Depth Not available.
UV 0.0 out of 12
Pollen 6.90 out of 12
Air Quality Not available.
Flu Activity Not available.
METAR KFMM 290055Z AUTO 19011G16KT 10SM CLR 27/12 A3023 RMK AO2 LTG DSNT N T02700120 PWINO

More Conditions Fewer Conditions

Pressure 30.23 in
Visibility 10.0 miles
Clouds Clear
Heat Index 81 °F
Dew Point 57 °F
Humidity 43%
Rainfall 0.00 in
Snow Depth Not available.
UV 0.0 out of 12
Pollen 6.90 out of 12
Air Quality Not available.
Flu Activity Not available.
METAR KFMM 290055Z AUTO 19011G16KT 10SM CLR 27/12 A3023 RMK AO2 LTG DSNT N T02700120 PWINO

More Conditions Fewer Conditions

10-Day Weather Forecast

Almanac

Astronomy

Jul. 28, 2014 Rise Set
Actual Time 5:49 AM MDT 8:13 PM MDT
Civil Twilight 5:18 AM MDT 8:44 PM MDT
Nautical Twilight 4:40 AM MDT 9:22 PM MDT
Astronomical Twilight 3:57 AM MDT 10:04 PM MDT
Moon 7:33 AM MDT (7/28) 8:56 PM MDT (7/28)
Length of Visible Light 15h 25m
Length of Day
14h 24m
Tomorrow will be 1m 54s shorter.
Waxing Crescent, 4% of the Moon is Illuminated
Today
Waxing Crescent
Aug 3
First Quarter
Aug 10
Full
Aug 17
Last Quarter
Aug 25
New

Today's Extremes

State Highs State Lows

Community

WunderPhotos

Upload Photos

1,738,579 photos uploaded!

WunderBlogs® & News

Nearby

Snow Depth

Station Depth Elevation
Niwot 0 in 9910 ft
University Camp 0 in 10300 ft
Echo Lake 0 in 10600 ft
Lake Irene 2 in 10700 ft
Berthoud Summit 0 in 11300 ft

Earthquake Activity

City Distance Mag. Time & Date
No recent earthquake activity has been reported nearby.
Minimum magnitude displayed is 2.5.

Coastal Water Temperatures

Place Temperature
No Stations Reporting

Nearby Weather Stations

Station Location Temp. Heat Index Dew Point Humidity Wind Precip. Elev Updated Type
Fort Morgan, Fort Morgan, CO 81.1 °F 81 °F 57 °F 43% SSW  at  2.2 mph 0.00 in / hr 4327 ft 7:12 PM MDT Rapid Fire

Show More Stations Show Fewer Stations